Stark City, MO (64866)

11:59 PM CDT del 03 Luglio 2015 (GMT -0500)
Monett | | Change Station
CLOSE
Current Station
Aeroporto
Location: Monett,
Altitudine: 1316 ft
Stazioni meteo nelle vicinanze

Alt. 1316 ft 36.91 °N, 94.01 °W | Updated 24 minutes ago

Sereno
Sereno
68 °F
Sembra 68 °F
N
5
Vento Variabile Vento da NE

Oggi
Massima -- | Minima -- °F
--% Possibilità di precip.
Ieri
Massima -- | Minima -- °F
Precip. -- in
6:01 AM 8:39 PM
Gobba a levante, 94% visible
Pressione 29.96 in
Visibilità 7.0 miglia
Nuvole Sereno
Punto di rugiada 68 °F
Umidità 100%
Piovosità 0.60 in
Spessore del manto nevoso Non disponibile.
Raggi UV 0 fuori da 12
Polline 3.10 fuori da 12
Qualità dell'aria Non disponibile.
Flu Activity Non disponibile.
METAR KHFJ 040435Z AUTO 04004KT 7SM CLR 20/20 A2996 RMK AO2

More Conditions Fewer Conditions

Pressione 29.96 in
Visibilità 7.0 miglia
Nuvole Sereno
Punto di rugiada 68 °F
Umidità 100%
Piovosità 0.60 in
Spessore del manto nevoso Non disponibile.
Raggi UV 0 fuori da 12
Polline 3.10 fuori da 12
Qualità dell'aria Non disponibile.
Flu Activity Non disponibile.
METAR KHFJ 040435Z AUTO 04004KT 7SM CLR 20/20 A2996 RMK AO2

More Conditions Fewer Conditions

10-Day Weather Forecast

×

Almanac

Astronomia

Jul. 03, 2015 Alba Tramonto
Ora attuale
Crepuscolo civile
Crepuscolo nautico
Crepuscolo astronomico
Luna
Estensione della luce visibile
Lunghezza del giorno
Tomorrow will be .
, % of the Moon is Illuminated

Gli estremi di oggi

State Highs State Lows

Community

WunderPhotos

Upload Photos

1,834,931 foto caricate!

WunderBlogs® & News

Nearby

Qualità dell'aria

  Qualità dell'aria Indice AQ Inquinante
Not available.

Profondità neve

Stazione Profondità Altitudine

Attività sismica

Città  Distanza Mag. Data & Ora
Minimo Magnitudo Mostrato è 2.5.

Temperature delle acque costiere

Località Temperatura

Stations

Stazioni meteo nelle vicinanze

Ubicazione della stazione Temp. Raffreddamento del vento Punto di rugiada Umidità Vento Precip. Alt. Aggiornato Tipo